createdAt,value
2023-05-11T00:02:25.957Z,1.83
2023-05-11T00:07:27.718Z,1.60
2023-05-11T00:12:29.321Z,1.83
2023-05-11T00:17:32.341Z,2.13
2023-05-11T00:22:34.032Z,1.93
2023-05-11T00:27:35.691Z,2.67
2023-05-11T00:32:38.771Z,2.13
2023-05-11T00:37:40.994Z,2.63
2023-05-11T00:42:42.556Z,2.20
2023-05-11T00:47:45.514Z,2.27
2023-05-11T00:52:47.598Z,2.47
2023-05-11T00:57:49.256Z,3.00
2023-05-11T01:02:52.900Z,3.20
2023-05-11T01:07:59.921Z,2.83
2023-05-11T01:13:08.248Z,2.70
2023-05-11T01:18:17.203Z,2.90
2023-05-11T01:23:43.660Z,3.90
2023-05-11T01:28:58.636Z,3.33
2023-05-11T01:34:04.192Z,3.13
2023-05-11T01:39:09.072Z,2.70
2023-05-11T01:44:11.068Z,3.30
2023-05-11T01:49:14.450Z,2.90
2023-05-11T01:54:17.163Z,3.70
2023-05-11T01:59:19.115Z,2.70
2023-05-11T02:04:22.500Z,2.87
2023-05-11T02:09:24.635Z,2.60
2023-05-11T02:14:27.657Z,2.73
2023-05-11T02:19:32.049Z,2.73
2023-05-11T02:24:34.465Z,2.40
2023-05-11T02:29:36.996Z,2.10
2023-05-11T02:34:41.855Z,2.13
2023-05-11T02:39:46.582Z,2.50
2023-05-11T02:44:53.708Z,2.90
2023-05-11T02:49:58.271Z,2.80
2023-05-11T02:55:02.489Z,2.47
2023-05-11T03:00:05.195Z,2.57
2023-05-11T03:05:08.950Z,2.43
2023-05-11T03:10:11.010Z,2.50
2023-05-11T03:15:15.457Z,2.60
2023-05-11T03:20:22.347Z,3.33
2023-05-11T03:25:24.949Z,2.77
2023-05-11T03:30:28.240Z,2.80
2023-05-11T03:35:33.991Z,3.10
2023-05-11T03:40:37.590Z,3.40
2023-05-11T03:45:40.187Z,3.03
2023-05-11T03:50:43.735Z,2.90
2023-05-11T03:55:45.480Z,3.50
2023-05-11T04:00:47.240Z,3.50
2023-05-11T04:05:50.201Z,3.60
2023-05-11T04:10:51.793Z,4.27
2023-05-11T04:15:54.505Z,3.53
2023-05-11T04:20:57.566Z,3.20
2023-05-11T04:25:59.245Z,3.40
2023-05-11T04:31:00.964Z,3.90
2023-05-11T04:36:06.128Z,3.23
2023-05-11T04:41:08.732Z,2.97
2023-05-11T04:46:11.528Z,2.87
2023-05-11T04:51:15.969Z,3.10
2023-05-11T04:56:19.331Z,2.70
2023-05-11T05:01:22.925Z,3.10
2023-05-11T05:06:25.942Z,3.07
2023-05-11T05:11:27.716Z,2.90
2023-05-11T05:16:31.530Z,3.50
2023-05-11T05:21:35.568Z,3.87
2023-05-11T05:26:37.326Z,4.00
2023-05-11T05:31:39.309Z,4.00
2023-05-11T05:36:43.007Z,3.83
2023-05-11T05:41:44.772Z,4.40
2023-05-11T05:46:47.669Z,4.40
2023-05-11T05:51:50.767Z,4.40
2023-05-11T05:56:53.114Z,5.10
2023-05-11T06:01:55.870Z,4.93
2023-05-11T06:07:00.503Z,5.50
2023-05-11T06:12:02.122Z,5.23
2023-05-11T06:17:05.552Z,4.17
2023-05-11T06:22:08.597Z,4.57
2023-05-11T06:27:11.063Z,4.50
2023-05-11T06:32:12.872Z,4.30
2023-05-11T06:37:16.744Z,5.40
2023-05-11T06:42:18.442Z,4.97
2023-05-11T06:47:20.182Z,5.07
2023-05-11T06:52:24.002Z,5.37
2023-05-11T06:57:26.921Z,5.20
2023-05-11T07:02:28.624Z,5.20
2023-05-11T07:07:31.626Z,5.23
2023-05-11T07:12:33.187Z,6.27
2023-05-11T07:17:34.807Z,4.80
2023-05-11T07:22:37.847Z,8.83
2023-05-11T07:27:39.434Z,6.30
2023-05-11T07:32:41.128Z,5.90
2023-05-11T07:37:44.131Z,5.07
2023-05-11T07:42:45.802Z,7.50
2023-05-11T07:47:47.441Z,6.53
2023-05-11T07:52:50.474Z,6.10
2023-05-11T07:57:52.997Z,5.30
2023-05-11T08:02:54.712Z,3.73
2023-05-11T08:07:57.765Z,4.97
2023-05-11T08:12:59.400Z,4.30
2023-05-11T08:18:01.080Z,4.00
2023-05-11T08:23:04.092Z,4.23
2023-05-11T08:28:05.841Z,4.73
2023-05-11T08:33:22.771Z,4.40
2023-05-11T08:38:30.418Z,4.87
2023-05-11T08:43:35.171Z,5.83
2023-05-11T08:48:37.145Z,4.40
2023-05-11T08:53:40.262Z,3.83
2023-05-11T08:58:42.604Z,4.10
2023-05-11T09:03:45.283Z,4.33
2023-05-11T09:08:48.346Z,3.90
2023-05-11T09:13:50.151Z,6.33
2023-05-11T09:18:53.239Z,5.50
2023-05-11T09:23:56.918Z,5.13
2023-05-11T09:34:11.931Z,3.97
2023-05-11T09:39:15.926Z,5.37
2023-05-11T09:44:18.583Z,5.07
2023-05-11T09:49:29.232Z,4.60
2023-05-11T09:54:40.699Z,4.97
2023-05-11T09:59:42.322Z,4.90
2023-05-11T10:04:44.214Z,4.53
2023-05-11T10:09:47.190Z,4.23
2023-05-11T10:14:49.487Z,5.00
2023-05-11T10:19:52.131Z,5.47
2023-05-11T10:24:56.520Z,8.13
2023-05-11T10:29:58.423Z,5.17
2023-05-11T10:35:00.175Z,4.30
2023-05-11T10:40:03.636Z,4.30
2023-05-11T10:45:17.235Z,4.37
2023-05-11T10:50:43.295Z,4.40
2023-05-11T10:55:57.587Z,8.40
2023-05-11T11:01:27.070Z,4.60
2023-05-11T11:06:28.860Z,3.90
2023-05-11T11:11:33.999Z,4.63
2023-05-11T11:16:36.139Z,3.90
2023-05-11T11:21:39.449Z,5.53
2023-05-11T11:26:49.144Z,3.73
2023-05-11T11:31:50.795Z,3.93
2023-05-11T11:37:08.713Z,4.87
2023-05-11T11:42:12.698Z,3.87
2023-05-11T11:47:15.474Z,3.93
2023-05-11T11:52:32.859Z,4.87
2023-05-11T11:57:45.112Z,4.97
2023-05-11T12:02:46.899Z,7.20
2023-05-11T12:07:49.703Z,5.13
2023-05-11T12:12:52.860Z,4.80
2023-05-11T12:17:55.049Z,4.17
2023-05-11T12:22:56.760Z,4.47
2023-05-11T12:27:59.709Z,6.63
2023-05-11T12:33:01.869Z,6.27
2023-05-11T12:38:03.483Z,6.80
2023-05-11T12:43:06.580Z,4.57
2023-05-11T12:48:09.335Z,4.50
2023-05-11T12:53:14.422Z,5.77
2023-05-11T12:58:17.507Z,6.23
2023-05-11T13:03:23.005Z,6.70
2023-05-11T13:08:24.867Z,7.17
2023-05-11T13:13:28.403Z,8.90
2023-05-11T13:18:30.276Z,5.93
2023-05-11T13:23:31.974Z,7.57
2023-05-11T13:28:35.035Z,7.10
2023-05-11T13:33:36.746Z,7.50
2023-05-11T13:38:38.442Z,8.00
2023-05-11T13:43:41.564Z,9.00
2023-05-11T13:48:43.288Z,8.23
2023-05-11T13:53:44.894Z,7.10
2023-05-11T13:58:47.962Z,7.97
2023-05-11T14:03:54.200Z,8.07
2023-05-11T14:08:55.950Z,8.53
2023-05-11T14:13:58.955Z,8.40
2023-05-11T14:19:00.620Z,7.60
2023-05-11T14:24:11.421Z,5.90
2023-05-11T14:29:15.717Z,6.50
2023-05-11T14:34:17.950Z,7.90
2023-05-11T14:39:19.626Z,6.93
2023-05-11T14:44:25.272Z,5.87
2023-05-11T14:49:27.138Z,5.30
2023-05-11T14:54:31.456Z,6.27
2023-05-11T14:59:34.850Z,5.20
2023-05-11T15:04:38.340Z,6.50
2023-05-11T15:09:40.038Z,5.83
2023-05-11T15:14:42.997Z,6.10
2023-05-11T15:19:44.773Z,5.73
2023-05-11T15:24:46.504Z,7.70
2023-05-11T15:29:49.558Z,7.10
2023-05-11T15:34:59.105Z,7.17
2023-05-11T15:40:01.712Z,9.40
2023-05-11T15:45:05.759Z,7.40
2023-05-11T15:50:07.782Z,7.20
2023-05-11T15:55:09.685Z,9.80
2023-05-11T16:00:13.744Z,6.07
2023-05-11T16:05:15.435Z,8.43
2023-05-11T16:10:17.289Z,5.40
2023-05-11T16:15:20.535Z,10.93
2023-05-11T16:20:22.331Z,6.80
2023-05-11T16:25:23.979Z,6.97
2023-05-11T16:30:27.139Z,8.47
2023-05-11T16:35:29.221Z,8.57
2023-05-11T16:40:30.864Z,7.47
2023-05-11T16:45:33.878Z,6.30
2023-05-11T16:50:35.556Z,6.37
2023-05-11T16:55:37.128Z,6.70
2023-05-11T17:00:40.151Z,6.77
2023-05-11T17:05:41.850Z,7.17
2023-05-11T17:10:43.576Z,7.87
2023-05-11T17:15:46.624Z,7.53
2023-05-11T17:20:52.002Z,10.30
2023-05-11T17:25:53.597Z,9.40
2023-05-11T17:30:56.641Z,7.53
2023-05-11T17:35:58.440Z,6.63
2023-05-11T17:41:02.255Z,7.80
2023-05-11T17:46:05.378Z,8.30
2023-05-11T17:51:07.178Z,11.03
2023-05-11T17:56:09.009Z,8.23
2023-05-11T18:01:13.072Z,8.90
2023-05-11T18:06:14.789Z,7.80
2023-05-11T18:11:16.472Z,11.63
2023-05-11T18:16:19.643Z,8.50
2023-05-11T18:21:21.555Z,11.80
2023-05-11T18:26:24.890Z,11.37
2023-05-11T18:31:28.947Z,18.77
2023-05-11T18:36:31.179Z,9.97
2023-05-11T18:41:33.085Z,10.37
2023-05-11T18:46:36.183Z,10.70
2023-05-11T18:51:37.788Z,10.03
2023-05-11T18:56:39.508Z,10.63
2023-05-11T19:01:47.963Z,14.50
2023-05-11T19:06:50.337Z,11.20
2023-05-11T19:11:53.376Z,9.37
2023-05-11T19:16:56.577Z,10.07
2023-05-11T19:21:58.346Z,9.97
2023-05-11T19:27:07.368Z,11.73
2023-05-11T19:32:11.179Z,11.20
2023-05-11T19:37:12.997Z,11.00
2023-05-11T19:42:14.779Z,10.33
2023-05-11T19:47:20.165Z,9.80
2023-05-11T19:52:21.945Z,11.50
2023-05-11T19:57:23.752Z,10.73
2023-05-11T20:02:26.899Z,14.37
2023-05-11T20:07:28.573Z,16.80
2023-05-11T20:12:30.285Z,16.53
2023-05-11T20:17:33.468Z,14.07
2023-05-11T20:22:35.301Z,15.53
2023-05-11T20:27:37.028Z,12.60
2023-05-11T20:38:01.867Z,13.70
2023-05-11T20:43:03.616Z,13.83
2023-05-11T20:48:06.797Z,14.00
2023-05-11T20:53:08.536Z,15.47
2023-05-11T20:58:10.164Z,12.90
2023-05-11T21:03:13.226Z,13.27
2023-05-11T21:08:14.963Z,14.40
2023-05-11T21:13:16.668Z,16.87
2023-05-11T21:18:19.797Z,18.63
2023-05-11T21:23:21.454Z,16.07
2023-05-11T21:28:23.296Z,17.17
2023-05-11T21:33:26.315Z,16.53
2023-05-11T21:38:28.109Z,14.97
2023-05-11T21:43:30.488Z,15.20
2023-05-11T21:48:33.456Z,14.30
2023-05-11T21:53:35.116Z,16.30
2023-05-11T21:58:36.723Z,14.43
2023-05-11T22:03:39.784Z,15.07
2023-05-11T22:08:41.587Z,13.60
2023-05-11T22:13:43.210Z,10.03
2023-05-11T22:18:46.317Z,9.73
2023-05-11T22:23:47.980Z,8.90
2023-05-11T22:28:49.594Z,8.90
2023-05-11T22:33:52.636Z,9.90
2023-05-11T22:38:54.482Z,8.33
2023-05-11T22:43:56.197Z,8.13
2023-05-11T22:48:59.164Z,8.50
2023-05-11T22:54:00.804Z,7.83
2023-05-11T22:59:02.505Z,8.80
2023-05-11T23:04:05.490Z,8.73
2023-05-11T23:09:07.143Z,9.30
2023-05-11T23:14:08.769Z,10.70
2023-05-11T23:19:11.817Z,10.63
2023-05-11T23:24:13.543Z,11.00
2023-05-11T23:29:15.283Z,9.77
2023-05-11T23:34:18.583Z,10.20
2023-05-11T23:39:20.251Z,11.50
2023-05-11T23:44:21.884Z,12.77
2023-05-11T23:49:24.867Z,12.60
2023-05-11T23:54:26.431Z,14.00
2023-05-11T23:59:28.024Z,13.10
